sensor_id;sensor_type;location;lat;lon;timestamp;P1;durP1;ratioP1;P2;durP2;ratioP2
2624;SDS011;1322;53.256;10.386;2023-04-29T00:00:53;16.80;;;11.17;;
2624;SDS011;1322;53.256;10.386;2023-04-29T00:03:22;15.97;;;12.13;;
2624;SDS011;1322;53.256;10.386;2023-04-29T00:05:48;14.63;;;10.73;;
2624;SDS011;1322;53.256;10.386;2023-04-29T00:08:14;14.03;;;12.60;;
2624;SDS011;1322;53.256;10.386;2023-04-29T00:10:40;18.57;;;11.27;;
2624;SDS011;1322;53.256;10.386;2023-04-29T00:13:06;12.37;;;9.27;;
2624;SDS011;1322;53.256;10.386;2023-04-29T00:15:32;15.13;;;10.60;;
2624;SDS011;1322;53.256;10.386;2023-04-29T00:17:58;13.50;;;10.70;;
2624;SDS011;1322;53.256;10.386;2023-04-29T00:20:24;12.53;;;10.10;;
2624;SDS011;1322;53.256;10.386;2023-04-29T00:22:50;12.03;;;9.87;;
2624;SDS011;1322;53.256;10.386;2023-04-29T00:25:16;16.77;;;9.80;;
2624;SDS011;1322;53.256;10.386;2023-04-29T00:27:42;12.80;;;10.10;;
2624;SDS011;1322;53.256;10.386;2023-04-29T00:30:08;12.43;;;10.33;;
2624;SDS011;1322;53.256;10.386;2023-04-29T00:32:34;12.13;;;9.70;;
2624;SDS011;1322;53.256;10.386;2023-04-29T00:35:00;14.20;;;9.80;;
2624;SDS011;1322;53.256;10.386;2023-04-29T00:37:26;14.80;;;9.97;;
2624;SDS011;1322;53.256;10.386;2023-04-29T00:39:52;16.53;;;10.00;;
2624;SDS011;1322;53.256;10.386;2023-04-29T00:42:19;13.47;;;9.93;;
2624;SDS011;1322;53.256;10.386;2023-04-29T00:44:45;13.87;;;10.77;;
2624;SDS011;1322;53.256;10.386;2023-04-29T00:47:13;10.00;;;9.00;;
2624;SDS011;1322;53.256;10.386;2023-04-29T00:49:39;12.70;;;10.10;;
2624;SDS011;1322;53.256;10.386;2023-04-29T00:52:05;14.43;;;10.00;;
2624;SDS011;1322;53.256;10.386;2023-04-29T00:54:34;15.20;;;10.90;;
2624;SDS011;1322;53.256;10.386;2023-04-29T00:57:02;13.83;;;10.53;;
2624;SDS011;1322;53.256;10.386;2023-04-29T00:59:30;11.43;;;9.97;;
2624;SDS011;1322;53.256;10.386;2023-04-29T01:02:00;15.07;;;10.30;;
2624;SDS011;1322;53.256;10.386;2023-04-29T01:04:28;13.97;;;11.00;;
2624;SDS011;1322;53.256;10.386;2023-04-29T01:09:52;13.40;;;10.63;;
2624;SDS011;1322;53.256;10.386;2023-04-29T01:14:53;14.10;;;10.63;;
2624;SDS011;1322;53.256;10.386;2023-04-29T01:17:35;9.93;;;8.90;;
2624;SDS011;1322;53.256;10.386;2023-04-29T01:20:05;11.90;;;10.30;;
2624;SDS011;1322;53.256;10.386;2023-04-29T01:22:32;13.47;;;10.13;;
2624;SDS011;1322;53.256;10.386;2023-04-29T01:24:59;11.60;;;9.67;;
2624;SDS011;1322;53.256;10.386;2023-04-29T01:33:16;12.77;;;9.77;;
2624;SDS011;1322;53.256;10.386;2023-04-29T01:38:54;13.03;;;9.90;;
2624;SDS011;1322;53.256;10.386;2023-04-29T01:41:42;11.50;;;9.70;;
2624;SDS011;1322;53.256;10.386;2023-04-29T01:44:12;11.87;;;8.67;;
2624;SDS011;1322;53.256;10.386;2023-04-29T01:46:41;15.47;;;10.53;;
2624;SDS011;1322;53.256;10.386;2023-04-29T01:49:08;13.23;;;10.00;;
2624;SDS011;1322;53.256;10.386;2023-04-29T01:51:35;14.33;;;10.27;;
2624;SDS011;1322;53.256;10.386;2023-04-29T01:54:01;13.03;;;9.40;;
2624;SDS011;1322;53.256;10.386;2023-04-29T01:56:29;14.23;;;10.27;;
2624;SDS011;1322;53.256;10.386;2023-04-29T01:58:55;14.80;;;11.03;;
2624;SDS011;1322;53.256;10.386;2023-04-29T02:01:21;19.23;;;10.27;;
2624;SDS011;1322;53.256;10.386;2023-04-29T02:03:47;12.33;;;9.77;;
2624;SDS011;1322;53.256;10.386;2023-04-29T02:06:13;11.27;;;8.73;;
2624;SDS011;1322;53.256;10.386;2023-04-29T02:08:39;13.17;;;11.80;;
2624;SDS011;1322;53.256;10.386;2023-04-29T02:11:05;15.90;;;10.50;;
2624;SDS011;1322;53.256;10.386;2023-04-29T02:13:31;14.67;;;10.60;;
2624;SDS011;1322;53.256;10.386;2023-04-29T02:15:57;13.83;;;9.70;;
2624;SDS011;1322;53.256;10.386;2023-04-29T02:18:32;11.13;;;9.13;;
2624;SDS011;1322;53.256;10.386;2023-04-29T02:21:01;12.27;;;10.67;;
2624;SDS011;1322;53.256;10.386;2023-04-29T02:23:26;12.07;;;8.80;;
2624;SDS011;1322;53.256;10.386;2023-04-29T02:25:53;13.33;;;8.90;;
2624;SDS011;1322;53.256;10.386;2023-04-29T02:28:19;13.43;;;9.10;;
2624;SDS011;1322;53.256;10.386;2023-04-29T02:30:47;11.10;;;9.50;;
2624;SDS011;1322;53.256;10.386;2023-04-29T02:33:13;10.70;;;8.17;;
2624;SDS011;1322;53.256;10.386;2023-04-29T02:35:40;14.23;;;8.83;;
2624;SDS011;1322;53.256;10.386;2023-04-29T02:38:06;13.40;;;9.67;;
2624;SDS011;1322;53.256;10.386;2023-04-29T02:40:32;16.80;;;10.40;;
2624;SDS011;1322;53.256;10.386;2023-04-29T02:42:58;12.37;;;9.00;;
2624;SDS011;1322;53.256;10.386;2023-04-29T02:45:25;11.97;;;9.03;;
2624;SDS011;1322;53.256;10.386;2023-04-29T02:47:51;10.40;;;9.10;;
2624;SDS011;1322;53.256;10.386;2023-04-29T02:50:17;12.60;;;9.40;;
2624;SDS011;1322;53.256;10.386;2023-04-29T02:52:43;11.27;;;8.77;;
2624;SDS011;1322;53.256;10.386;2023-04-29T02:55:10;13.67;;;9.30;;
2624;SDS011;1322;53.256;10.386;2023-04-29T02:57:39;12.63;;;9.97;;
2624;SDS011;1322;53.256;10.386;2023-04-29T03:00:05;13.93;;;10.20;;
2624;SDS011;1322;53.256;10.386;2023-04-29T03:02:31;12.27;;;10.00;;
2624;SDS011;1322;53.256;10.386;2023-04-29T03:04:57;13.77;;;10.73;;
2624;SDS011;1322;53.256;10.386;2023-04-29T03:07:23;19.10;;;9.97;;
2624;SDS011;1322;53.256;10.386;2023-04-29T03:09:49;21.83;;;10.07;;
2624;SDS011;1322;53.256;10.386;2023-04-29T03:12:15;12.40;;;9.63;;
2624;SDS011;1322;53.256;10.386;2023-04-29T03:14:41;11.53;;;9.13;;
2624;SDS011;1322;53.256;10.386;2023-04-29T03:17:07;13.70;;;10.50;;
2624;SDS011;1322;53.256;10.386;2023-04-29T03:19:33;12.10;;;9.87;;
2624;SDS011;1322;53.256;10.386;2023-04-29T03:21:59;15.00;;;9.93;;
2624;SDS011;1322;53.256;10.386;2023-04-29T03:24:25;12.77;;;10.13;;
2624;SDS011;1322;53.256;10.386;2023-04-29T03:26:51;20.03;;;10.60;;
2624;SDS011;1322;53.256;10.386;2023-04-29T03:29:17;12.60;;;9.90;;
2624;SDS011;1322;53.256;10.386;2023-04-29T03:31:43;11.83;;;9.60;;
2624;SDS011;1322;53.256;10.386;2023-04-29T03:34:09;15.60;;;9.20;;
2624;SDS011;1322;53.256;10.386;2023-04-29T03:36:35;16.47;;;10.10;;
2624;SDS011;1322;53.256;10.386;2023-04-29T03:39:01;13.13;;;9.93;;
2624;SDS011;1322;53.256;10.386;2023-04-29T03:41:28;14.63;;;10.30;;
2624;SDS011;1322;53.256;10.386;2023-04-29T03:43:54;14.20;;;10.30;;
2624;SDS011;1322;53.256;10.386;2023-04-29T03:46:24;16.13;;;10.70;;
2624;SDS011;1322;53.256;10.386;2023-04-29T03:48:50;13.50;;;9.77;;
2624;SDS011;1322;53.256;10.386;2023-04-29T03:51:16;13.73;;;10.97;;
2624;SDS011;1322;53.256;10.386;2023-04-29T03:53:42;14.50;;;11.37;;
2624;SDS011;1322;53.256;10.386;2023-04-29T03:56:09;18.93;;;13.33;;
2624;SDS011;1322;53.256;10.386;2023-04-29T03:58:35;11.40;;;9.70;;
2624;SDS011;1322;53.256;10.386;2023-04-29T04:01:01;15.97;;;10.30;;
2624;SDS011;1322;53.256;10.386;2023-04-29T04:03:27;13.40;;;10.90;;
2624;SDS011;1322;53.256;10.386;2023-04-29T04:05:53;16.23;;;11.27;;
2624;SDS011;1322;53.256;10.386;2023-04-29T04:08:19;23.30;;;12.87;;
2624;SDS011;1322;53.256;10.386;2023-04-29T04:10:45;16.80;;;12.10;;
2624;SDS011;1322;53.256;10.386;2023-04-29T04:13:11;19.77;;;11.00;;
2624;SDS011;1322;53.256;10.386;2023-04-29T04:15:38;22.20;;;12.43;;
2624;SDS011;1322;53.256;10.386;2023-04-29T04:18:04;15.93;;;11.33;;
2624;SDS011;1322;53.256;10.386;2023-04-29T04:20:30;11.63;;;10.37;;
2624;SDS011;1322;53.256;10.386;2023-04-29T04:22:56;15.80;;;12.53;;
2624;SDS011;1322;53.256;10.386;2023-04-29T04:25:22;17.27;;;11.47;;
2624;SDS011;1322;53.256;10.386;2023-04-29T04:27:48;17.53;;;11.93;;
2624;SDS011;1322;53.256;10.386;2023-04-29T04:30:14;21.33;;;14.07;;
2624;SDS011;1322;53.256;10.386;2023-04-29T04:32:40;21.70;;;12.10;;
2624;SDS011;1322;53.256;10.386;2023-04-29T04:35:06;20.87;;;13.07;;
2624;SDS011;1322;53.256;10.386;2023-04-29T04:37:32;16.43;;;12.10;;
2624;SDS011;1322;53.256;10.386;2023-04-29T04:39:58;25.20;;;15.07;;
2624;SDS011;1322;53.256;10.386;2023-04-29T04:42:24;16.10;;;11.90;;
2624;SDS011;1322;53.256;10.386;2023-04-29T04:44:51;20.33;;;13.77;;
2624;SDS011;1322;53.256;10.386;2023-04-29T04:47:17;19.57;;;13.70;;
2624;SDS011;1322;53.256;10.386;2023-04-29T04:49:43;19.50;;;13.63;;
2624;SDS011;1322;53.256;10.386;2023-04-29T04:52:10;25.00;;;13.37;;
2624;SDS011;1322;53.256;10.386;2023-04-29T04:54:36;17.70;;;13.80;;
2624;SDS011;1322;53.256;10.386;2023-04-29T04:57:02;16.07;;;13.80;;
2624;SDS011;1322;53.256;10.386;2023-04-29T04:59:30;19.33;;;13.20;;
2624;SDS011;1322;53.256;10.386;2023-04-29T05:01:56;15.30;;;12.10;;
2624;SDS011;1322;53.256;10.386;2023-04-29T05:04:22;20.17;;;12.63;;
2624;SDS011;1322;53.256;10.386;2023-04-29T05:06:48;17.17;;;13.60;;
2624;SDS011;1322;53.256;10.386;2023-04-29T05:09:14;20.63;;;14.00;;
2624;SDS011;1322;53.256;10.386;2023-04-29T05:11:40;15.83;;;12.70;;
2624;SDS011;1322;53.256;10.386;2023-04-29T05:14:06;27.80;;;15.00;;
2624;SDS011;1322;53.256;10.386;2023-04-29T05:16:32;24.03;;;13.13;;
2624;SDS011;1322;53.256;10.386;2023-04-29T05:18:58;21.83;;;13.17;;
2624;SDS011;1322;53.256;10.386;2023-04-29T05:21:24;17.90;;;13.30;;
2624;SDS011;1322;53.256;10.386;2023-04-29T05:23:50;17.10;;;13.27;;
2624;SDS011;1322;53.256;10.386;2023-04-29T05:26:16;20.60;;;14.30;;
2624;SDS011;1322;53.256;10.386;2023-04-29T05:28:42;22.20;;;13.80;;
2624;SDS011;1322;53.256;10.386;2023-04-29T05:31:08;18.60;;;13.37;;
2624;SDS011;1322;53.256;10.386;2023-04-29T05:33:34;19.50;;;12.80;;
2624;SDS011;1322;53.256;10.386;2023-04-29T05:36:00;16.77;;;12.30;;
2624;SDS011;1322;53.256;10.386;2023-04-29T05:38:26;17.90;;;12.97;;
2624;SDS011;1322;53.256;10.386;2023-04-29T05:40:54;17.07;;;13.00;;
2624;SDS011;1322;53.256;10.386;2023-04-29T05:43:20;20.40;;;14.40;;
2624;SDS011;1322;53.256;10.386;2023-04-29T05:45:46;18.43;;;12.50;;
2624;SDS011;1322;53.256;10.386;2023-04-29T05:48:12;19.63;;;12.80;;
2624;SDS011;1322;53.256;10.386;2023-04-29T05:50:38;19.03;;;13.73;;
2624;SDS011;1322;53.256;10.386;2023-04-29T05:53:04;20.60;;;14.30;;
2624;SDS011;1322;53.256;10.386;2023-04-29T05:55:30;21.90;;;14.50;;
2624;SDS011;1322;53.256;10.386;2023-04-29T05:57:56;18.10;;;13.53;;
2624;SDS011;1322;53.256;10.386;2023-04-29T06:00:22;19.07;;;14.27;;
2624;SDS011;1322;53.256;10.386;2023-04-29T06:02:48;17.60;;;12.60;;
2624;SDS011;1322;53.256;10.386;2023-04-29T06:05:14;21.70;;;14.07;;
2624;SDS011;1322;53.256;10.386;2023-04-29T06:07:41;18.50;;;12.57;;
2624;SDS011;1322;53.256;10.386;2023-04-29T06:10:07;20.30;;;14.80;;
2624;SDS011;1322;53.256;10.386;2023-04-29T06:12:34;20.43;;;13.70;;
2624;SDS011;1322;53.256;10.386;2023-04-29T06:15:00;19.80;;;13.57;;
2624;SDS011;1322;53.256;10.386;2023-04-29T06:17:27;16.53;;;11.97;;
2624;SDS011;1322;53.256;10.386;2023-04-29T06:19:53;17.33;;;12.73;;
2624;SDS011;1322;53.256;10.386;2023-04-29T06:22:20;20.43;;;13.10;;
2624;SDS011;1322;53.256;10.386;2023-04-29T06:24:46;16.70;;;12.93;;
2624;SDS011;1322;53.256;10.386;2023-04-29T06:27:14;16.00;;;12.40;;
2624;SDS011;1322;53.256;10.386;2023-04-29T06:29:40;17.67;;;12.70;;
2624;SDS011;1322;53.256;10.386;2023-04-29T06:32:06;18.53;;;14.03;;
2624;SDS011;1322;53.256;10.386;2023-04-29T06:34:32;18.33;;;13.77;;
2624;SDS011;1322;53.256;10.386;2023-04-29T06:36:59;17.23;;;12.70;;
2624;SDS011;1322;53.256;10.386;2023-04-29T06:39:25;15.20;;;12.53;;
2624;SDS011;1322;53.256;10.386;2023-04-29T06:41:51;16.60;;;13.50;;
2624;SDS011;1322;53.256;10.386;2023-04-29T06:44:17;15.43;;;11.00;;
2624;SDS011;1322;53.256;10.386;2023-04-29T06:46:43;14.33;;;12.40;;
2624;SDS011;1322;53.256;10.386;2023-04-29T06:49:09;14.77;;;11.40;;
2624;SDS011;1322;53.256;10.386;2023-04-29T06:51:36;15.57;;;11.57;;
2624;SDS011;1322;53.256;10.386;2023-04-29T06:54:02;12.97;;;10.07;;
2624;SDS011;1322;53.256;10.386;2023-04-29T06:56:28;16.93;;;12.03;;
2624;SDS011;1322;53.256;10.386;2023-04-29T06:58:54;14.30;;;12.03;;
2624;SDS011;1322;53.256;10.386;2023-04-29T07:01:20;14.57;;;11.40;;
2624;SDS011;1322;53.256;10.386;2023-04-29T07:03:46;14.63;;;10.83;;
2624;SDS011;1322;53.256;10.386;2023-04-29T07:06:12;14.00;;;10.80;;
2624;SDS011;1322;53.256;10.386;2023-04-29T07:08:38;15.60;;;9.67;;
2624;SDS011;1322;53.256;10.386;2023-04-29T07:11:04;12.20;;;9.73;;
2624;SDS011;1322;53.256;10.386;2023-04-29T07:13:33;13.50;;;10.67;;
2624;SDS011;1322;53.256;10.386;2023-04-29T07:15:59;14.40;;;10.50;;
2624;SDS011;1322;53.256;10.386;2023-04-29T07:18:25;11.40;;;9.40;;
2624;SDS011;1322;53.256;10.386;2023-04-29T07:20:54;11.07;;;9.10;;
2624;SDS011;1322;53.256;10.386;2023-04-29T07:23:24;13.43;;;8.93;;
2624;SDS011;1322;53.256;10.386;2023-04-29T07:25:50;11.83;;;8.80;;
2624;SDS011;1322;53.256;10.386;2023-04-29T07:28:16;18.67;;;9.43;;
2624;SDS011;1322;53.256;10.386;2023-04-29T07:30:42;14.03;;;9.30;;
2624;SDS011;1322;53.256;10.386;2023-04-29T07:33:08;12.30;;;9.50;;
2624;SDS011;1322;53.256;10.386;2023-04-29T07:35:34;10.77;;;7.00;;
2624;SDS011;1322;53.256;10.386;2023-04-29T07:38:00;14.07;;;9.00;;
2624;SDS011;1322;53.256;10.386;2023-04-29T07:40:26;9.70;;;7.77;;
2624;SDS011;1322;53.256;10.386;2023-04-29T07:42:52;11.67;;;7.83;;
2624;SDS011;1322;53.256;10.386;2023-04-29T07:45:18;12.93;;;7.70;;
2624;SDS011;1322;53.256;10.386;2023-04-29T07:47:44;10.57;;;8.20;;
2624;SDS011;1322;53.256;10.386;2023-04-29T07:50:10;13.50;;;8.07;;
2624;SDS011;1322;53.256;10.386;2023-04-29T07:52:36;11.47;;;8.03;;
2624;SDS011;1322;53.256;10.386;2023-04-29T07:55:02;12.23;;;6.83;;
2624;SDS011;1322;53.256;10.386;2023-04-29T07:57:29;12.63;;;7.00;;
2624;SDS011;1322;53.256;10.386;2023-04-29T07:59:55;11.10;;;7.20;;
2624;SDS011;1322;53.256;10.386;2023-04-29T08:02:21;9.57;;;6.83;;
2624;SDS011;1322;53.256;10.386;2023-04-29T08:04:47;12.07;;;7.37;;
2624;SDS011;1322;53.256;10.386;2023-04-29T08:07:14;10.70;;;7.77;;
2624;SDS011;1322;53.256;10.386;2023-04-29T08:09:40;12.00;;;7.23;;
2624;SDS011;1322;53.256;10.386;2023-04-29T08:12:07;8.80;;;6.20;;
2624;SDS011;1322;53.256;10.386;2023-04-29T08:14:33;10.87;;;7.03;;
2624;SDS011;1322;53.256;10.386;2023-04-29T08:16:59;8.57;;;6.03;;
2624;SDS011;1322;53.256;10.386;2023-04-29T08:19:25;12.50;;;7.47;;
2624;SDS011;1322;53.256;10.386;2023-04-29T08:21:51;7.43;;;6.63;;
2624;SDS011;1322;53.256;10.386;2023-04-29T08:24:17;11.40;;;6.80;;
2624;SDS011;1322;53.256;10.386;2023-04-29T08:26:44;13.57;;;7.00;;
2624;SDS011;1322;53.256;10.386;2023-04-29T08:29:11;12.43;;;7.70;;
2624;SDS011;1322;53.256;10.386;2023-04-29T08:31:37;9.80;;;8.00;;
2624;SDS011;1322;53.256;10.386;2023-04-29T08:34:03;13.53;;;8.20;;
2624;SDS011;1322;53.256;10.386;2023-04-29T08:36:29;8.73;;;6.60;;
2624;SDS011;1322;53.256;10.386;2023-04-29T08:38:55;10.53;;;6.60;;
2624;SDS011;1322;53.256;10.386;2023-04-29T08:41:21;8.50;;;7.43;;
2624;SDS011;1322;53.256;10.386;2023-04-29T08:43:47;12.47;;;8.13;;
2624;SDS011;1322;53.256;10.386;2023-04-29T08:46:13;6.77;;;5.27;;
2624;SDS011;1322;53.256;10.386;2023-04-29T08:48:39;9.77;;;7.30;;
2624;SDS011;1322;53.256;10.386;2023-04-29T08:51:05;11.50;;;6.97;;
2624;SDS011;1322;53.256;10.386;2023-04-29T08:53:32;8.13;;;7.27;;
2624;SDS011;1322;53.256;10.386;2023-04-29T08:56:02;9.63;;;8.10;;
2624;SDS011;1322;53.256;10.386;2023-04-29T08:58:33;9.67;;;5.70;;
2624;SDS011;1322;53.256;10.386;2023-04-29T09:00:59;9.50;;;6.83;;
2624;SDS011;1322;53.256;10.386;2023-04-29T09:03:29;14.13;;;6.83;;
2624;SDS011;1322;53.256;10.386;2023-04-29T09:06:01;10.57;;;7.50;;
2624;SDS011;1322;53.256;10.386;2023-04-29T09:08:28;9.60;;;6.17;;
2624;SDS011;1322;53.256;10.386;2023-04-29T09:10:54;9.70;;;6.90;;
2624;SDS011;1322;53.256;10.386;2023-04-29T09:13:29;8.20;;;6.87;;
2624;SDS011;1322;53.256;10.386;2023-04-29T09:15:58;11.30;;;6.83;;
2624;SDS011;1322;53.256;10.386;2023-04-29T09:21:17;8.27;;;6.50;;
2624;SDS011;1322;53.256;10.386;2023-04-29T09:23:44;11.00;;;6.83;;
2624;SDS011;1322;53.256;10.386;2023-04-29T09:26:14;11.03;;;7.20;;
2624;SDS011;1322;53.256;10.386;2023-04-29T09:28:40;17.93;;;8.03;;
2624;SDS011;1322;53.256;10.386;2023-04-29T09:31:10;7.60;;;6.10;;
2624;SDS011;1322;53.256;10.386;2023-04-29T09:33:57;9.70;;;7.37;;
2624;SDS011;1322;53.256;10.386;2023-04-29T09:39:16;10.17;;;6.80;;
2624;SDS011;1322;53.256;10.386;2023-04-29T09:44:18;11.20;;;7.50;;
2624;SDS011;1322;53.256;10.386;2023-04-29T09:47:04;9.83;;;6.27;;
2624;SDS011;1322;53.256;10.386;2023-04-29T09:49:32;14.73;;;7.33;;
2624;SDS011;1322;53.256;10.386;2023-04-29T09:52:04;12.07;;;6.73;;
2624;SDS011;1322;53.256;10.386;2023-04-29T09:54:38;13.83;;;7.80;;
2624;SDS011;1322;53.256;10.386;2023-04-29T09:57:05;9.90;;;7.50;;
2624;SDS011;1322;53.256;10.386;2023-04-29T09:59:36;15.23;;;7.30;;
2624;SDS011;1322;53.256;10.386;2023-04-29T10:02:06;11.77;;;7.47;;
2624;SDS011;1322;53.256;10.386;2023-04-29T10:04:39;9.23;;;6.67;;
2624;SDS011;1322;53.256;10.386;2023-04-29T10:07:06;9.07;;;6.40;;
2624;SDS011;1322;53.256;10.386;2023-04-29T10:09:33;11.13;;;6.90;;
2624;SDS011;1322;53.256;10.386;2023-04-29T10:12:02;13.93;;;7.70;;
2624;SDS011;1322;53.256;10.386;2023-04-29T10:14:34;10.10;;;6.67;;
2624;SDS011;1322;53.256;10.386;2023-04-29T10:17:19;8.10;;;6.37;;
2624;SDS011;1322;53.256;10.386;2023-04-29T10:19:51;13.00;;;6.80;;
2624;SDS011;1322;53.256;10.386;2023-04-29T10:22:32;10.23;;;6.47;;
2624;SDS011;1322;53.256;10.386;2023-04-29T10:25:01;12.47;;;7.20;;
2624;SDS011;1322;53.256;10.386;2023-04-29T10:27:28;7.37;;;5.90;;
2624;SDS011;1322;53.256;10.386;2023-04-29T10:29:58;8.50;;;5.90;;
2624;SDS011;1322;53.256;10.386;2023-04-29T10:32:26;10.10;;;6.67;;
2624;SDS011;1322;53.256;10.386;2023-04-29T10:34:54;9.93;;;6.43;;
2624;SDS011;1322;53.256;10.386;2023-04-29T10:37:22;11.97;;;6.93;;
2624;SDS011;1322;53.256;10.386;2023-04-29T10:42:43;9.13;;;5.77;;
2624;SDS011;1322;53.256;10.386;2023-04-29T10:45:26;8.73;;;7.13;;
2624;SDS011;1322;53.256;10.386;2023-04-29T10:53:02;10.30;;;7.00;;
2624;SDS011;1322;53.256;10.386;2023-04-29T10:55:28;9.90;;;7.03;;
2624;SDS011;1322;53.256;10.386;2023-04-29T10:57:55;8.50;;;7.40;;
2624;SDS011;1322;53.256;10.386;2023-04-29T11:00:28;9.20;;;6.90;;
2624;SDS011;1322;53.256;10.386;2023-04-29T11:02:55;8.67;;;6.67;;
2624;SDS011;1322;53.256;10.386;2023-04-29T11:05:35;10.97;;;7.37;;
2624;SDS011;1322;53.256;10.386;2023-04-29T11:08:11;10.40;;;7.67;;
2624;SDS011;1322;53.256;10.386;2023-04-29T11:10:41;9.73;;;6.87;;
2624;SDS011;1322;53.256;10.386;2023-04-29T11:13:20;14.80;;;7.40;;
2624;SDS011;1322;53.256;10.386;2023-04-29T11:15:47;8.10;;;6.30;;
2624;SDS011;1322;53.256;10.386;2023-04-29T11:18:13;15.23;;;7.63;;
2624;SDS011;1322;53.256;10.386;2023-04-29T11:21:10;10.47;;;7.87;;
2624;SDS011;1322;53.256;10.386;2023-04-29T11:23:36;9.47;;;6.30;;
2624;SDS011;1322;53.256;10.386;2023-04-29T11:26:05;6.37;;;5.70;;
2624;SDS011;1322;53.256;10.386;2023-04-29T11:28:31;11.73;;;7.20;;
2624;SDS011;1322;53.256;10.386;2023-04-29T11:30:57;9.57;;;6.57;;
2624;SDS011;1322;53.256;10.386;2023-04-29T11:33:24;11.40;;;6.87;;
2624;SDS011;1322;53.256;10.386;2023-04-29T11:35:51;8.60;;;5.93;;
2624;SDS011;1322;53.256;10.386;2023-04-29T11:38:22;7.90;;;6.30;;
2624;SDS011;1322;53.256;10.386;2023-04-29T11:40:51;5.43;;;4.80;;
2624;SDS011;1322;53.256;10.386;2023-04-29T11:43:19;8.20;;;6.23;;
2624;SDS011;1322;53.256;10.386;2023-04-29T11:45:47;7.00;;;5.77;;
2624;SDS011;1322;53.256;10.386;2023-04-29T11:48:31;7.90;;;6.50;;
2624;SDS011;1322;53.256;10.386;2023-04-29T11:50:57;6.23;;;5.60;;
2624;SDS011;1322;53.256;10.386;2023-04-29T11:53:24;10.53;;;6.90;;
2624;SDS011;1322;53.256;10.386;2023-04-29T11:55:52;8.67;;;5.70;;
2624;SDS011;1322;53.256;10.386;2023-04-29T11:58:21;9.03;;;6.67;;
2624;SDS011;1322;53.256;10.386;2023-04-29T12:00:48;6.40;;;5.10;;
2624;SDS011;1322;53.256;10.386;2023-04-29T12:03:16;6.03;;;5.33;;
2624;SDS011;1322;53.256;10.386;2023-04-29T12:05:52;7.67;;;5.70;;
2624;SDS011;1322;53.256;10.386;2023-04-29T12:08:23;9.03;;;6.73;;
2624;SDS011;1322;53.256;10.386;2023-04-29T12:10:50;7.07;;;5.67;;
2624;SDS011;1322;53.256;10.386;2023-04-29T12:13:17;7.87;;;5.63;;
2624;SDS011;1322;53.256;10.386;2023-04-29T12:15:46;8.93;;;7.30;;
2624;SDS011;1322;53.256;10.386;2023-04-29T12:18:13;6.70;;;5.70;;
2624;SDS011;1322;53.256;10.386;2023-04-29T12:20:39;5.40;;;4.50;;
2624;SDS011;1322;53.256;10.386;2023-04-29T12:23:16;6.50;;;5.47;;
2624;SDS011;1322;53.256;10.386;2023-04-29T12:25:47;6.17;;;5.40;;
2624;SDS011;1322;53.256;10.386;2023-04-29T12:28:18;8.20;;;6.10;;
2624;SDS011;1322;53.256;10.386;2023-04-29T12:30:47;7.07;;;5.70;;
2624;SDS011;1322;53.256;10.386;2023-04-29T12:33:18;10.77;;;6.40;;
2624;SDS011;1322;53.256;10.386;2023-04-29T12:35:51;9.20;;;6.40;;
2624;SDS011;1322;53.256;10.386;2023-04-29T12:38:19;8.00;;;5.57;;
2624;SDS011;1322;53.256;10.386;2023-04-29T12:40:51;7.40;;;6.00;;
2624;SDS011;1322;53.256;10.386;2023-04-29T12:43:17;8.10;;;4.63;;
2624;SDS011;1322;53.256;10.386;2023-04-29T12:45:44;9.50;;;5.93;;
2624;SDS011;1322;53.256;10.386;2023-04-29T12:48:10;10.23;;;6.33;;
2624;SDS011;1322;53.256;10.386;2023-04-29T12:50:38;9.97;;;6.97;;
2624;SDS011;1322;53.256;10.386;2023-04-29T12:53:04;11.37;;;6.30;;
2624;SDS011;1322;53.256;10.386;2023-04-29T12:55:35;11.80;;;6.50;;
2624;SDS011;1322;53.256;10.386;2023-04-29T12:58:02;7.80;;;6.23;;
2624;SDS011;1322;53.256;10.386;2023-04-29T13:00:29;7.37;;;6.40;;
2624;SDS011;1322;53.256;10.386;2023-04-29T13:02:56;9.93;;;6.83;;
2624;SDS011;1322;53.256;10.386;2023-04-29T13:05:21;10.07;;;7.20;;
2624;SDS011;1322;53.256;10.386;2023-04-29T13:07:48;11.33;;;7.37;;
2624;SDS011;1322;53.256;10.386;2023-04-29T13:10:17;11.60;;;7.00;;
2624;SDS011;1322;53.256;10.386;2023-04-29T13:12:42;9.50;;;6.80;;
2624;SDS011;1322;53.256;10.386;2023-04-29T13:15:08;8.50;;;7.57;;
2624;SDS011;1322;53.256;10.386;2023-04-29T13:17:35;10.90;;;6.67;;
2624;SDS011;1322;53.256;10.386;2023-04-29T13:20:02;7.87;;;6.93;;
2624;SDS011;1322;53.256;10.386;2023-04-29T13:22:28;7.33;;;6.03;;
2624;SDS011;1322;53.256;10.386;2023-04-29T13:24:54;10.20;;;6.20;;
2624;SDS011;1322;53.256;10.386;2023-04-29T13:27:20;11.93;;;6.30;;
2624;SDS011;1322;53.256;10.386;2023-04-29T13:29:46;7.30;;;6.57;;
2624;SDS011;1322;53.256;10.386;2023-04-29T13:32:12;14.13;;;7.47;;
2624;SDS011;1322;53.256;10.386;2023-04-29T13:34:39;6.90;;;5.80;;
2624;SDS011;1322;53.256;10.386;2023-04-29T13:37:07;9.73;;;7.00;;
2624;SDS011;1322;53.256;10.386;2023-04-29T13:39:33;11.43;;;8.43;;
2624;SDS011;1322;53.256;10.386;2023-04-29T13:42:02;11.80;;;7.17;;
2624;SDS011;1322;53.256;10.386;2023-04-29T13:44:28;8.23;;;6.77;;
2624;SDS011;1322;53.256;10.386;2023-04-29T13:46:55;8.30;;;7.37;;
2624;SDS011;1322;53.256;10.386;2023-04-29T13:49:21;10.43;;;6.93;;
2624;SDS011;1322;53.256;10.386;2023-04-29T13:51:47;9.37;;;6.17;;
2624;SDS011;1322;53.256;10.386;2023-04-29T13:54:13;6.30;;;5.30;;
2624;SDS011;1322;53.256;10.386;2023-04-29T13:56:39;7.37;;;5.30;;
2624;SDS011;1322;53.256;10.386;2023-04-29T13:59:04;6.90;;;5.80;;
2624;SDS011;1322;53.256;10.386;2023-04-29T14:01:30;6.33;;;5.10;;
2624;SDS011;1322;53.256;10.386;2023-04-29T14:03:56;6.10;;;5.50;;
2624;SDS011;1322;53.256;10.386;2023-04-29T14:06:22;8.27;;;5.70;;
2624;SDS011;1322;53.256;10.386;2023-04-29T14:08:47;7.17;;;4.70;;
2624;SDS011;1322;53.256;10.386;2023-04-29T14:11:13;6.00;;;4.87;;
2624;SDS011;1322;53.256;10.386;2023-04-29T14:13:40;8.33;;;5.20;;
2624;SDS011;1322;53.256;10.386;2023-04-29T14:16:05;7.00;;;4.13;;
2624;SDS011;1322;53.256;10.386;2023-04-29T14:18:33;7.37;;;4.83;;
2624;SDS011;1322;53.256;10.386;2023-04-29T14:20:59;9.40;;;4.60;;
2624;SDS011;1322;53.256;10.386;2023-04-29T14:23:25;8.20;;;4.80;;
2624;SDS011;1322;53.256;10.386;2023-04-29T14:25:50;8.93;;;5.00;;
2624;SDS011;1322;53.256;10.386;2023-04-29T14:28:16;6.10;;;4.83;;
2624;SDS011;1322;53.256;10.386;2023-04-29T14:30:42;4.47;;;3.70;;
2624;SDS011;1322;53.256;10.386;2023-04-29T14:33:08;7.43;;;4.83;;
2624;SDS011;1322;53.256;10.386;2023-04-29T14:35:34;7.20;;;4.60;;
2624;SDS011;1322;53.256;10.386;2023-04-29T14:38:00;7.83;;;5.07;;
2624;SDS011;1322;53.256;10.386;2023-04-29T14:40:25;4.90;;;3.77;;
2624;SDS011;1322;53.256;10.386;2023-04-29T14:42:51;7.40;;;4.33;;
2624;SDS011;1322;53.256;10.386;2023-04-29T14:45:17;5.57;;;4.40;;
2624;SDS011;1322;53.256;10.386;2023-04-29T14:47:43;4.77;;;4.20;;
2624;SDS011;1322;53.256;10.386;2023-04-29T14:50:09;7.00;;;3.43;;
2624;SDS011;1322;53.256;10.386;2023-04-29T14:52:35;4.27;;;3.13;;
2624;SDS011;1322;53.256;10.386;2023-04-29T14:55:01;4.80;;;2.93;;
2624;SDS011;1322;53.256;10.386;2023-04-29T14:57:27;2.90;;;2.57;;
2624;SDS011;1322;53.256;10.386;2023-04-29T14:59:54;3.60;;;2.40;;
2624;SDS011;1322;53.256;10.386;2023-04-29T15:02:23;3.50;;;2.30;;
2624;SDS011;1322;53.256;10.386;2023-04-29T15:04:48;4.13;;;2.90;;
2624;SDS011;1322;53.256;10.386;2023-04-29T15:07:17;4.13;;;2.53;;
2624;SDS011;1322;53.256;10.386;2023-04-29T15:09:43;3.40;;;2.37;;
2624;SDS011;1322;53.256;10.386;2023-04-29T15:12:09;3.40;;;2.40;;
2624;SDS011;1322;53.256;10.386;2023-04-29T15:14:35;3.53;;;2.30;;
2624;SDS011;1322;53.256;10.386;2023-04-29T15:17:01;5.10;;;2.70;;
2624;SDS011;1322;53.256;10.386;2023-04-29T15:19:27;10.40;;;3.17;;